createdAt,value
2023-01-09T09:07:25.870Z,36.70
2023-01-09T09:09:55.577Z,34.00
2023-01-09T09:13:08.802Z,41.50
2023-01-09T09:15:38.396Z,39.70
2023-01-09T09:18:08.769Z,38.20
2023-01-09T09:20:39.424Z,33.80
2023-01-09T09:23:08.475Z,31.00
2023-01-09T09:25:37.846Z,33.50
2023-01-09T09:28:07.095Z,31.10
2023-01-09T09:30:37.820Z,31.10
2023-01-09T09:33:07.081Z,28.00
2023-01-09T09:35:36.459Z,37.30
2023-01-09T09:38:06.176Z,33.40
2023-01-09T09:40:58.660Z,29.30
2023-01-09T09:44:09.136Z,34.50
2023-01-09T09:46:49.085Z,33.00
2023-01-09T09:49:22.900Z,34.00
2023-01-09T09:52:11.821Z,35.00
2023-01-09T09:54:43.696Z,34.60
2023-01-09T09:57:17.526Z,28.60
2023-01-09T09:59:50.675Z,37.20
2023-01-09T10:02:29.408Z,35.30
2023-01-09T10:05:05.288Z,32.00
2023-01-09T10:07:41.472Z,31.50
2023-01-09T10:10:19.544Z,32.90
2023-01-09T10:12:56.059Z,38.80
2023-01-09T10:15:38.283Z,33.60
2023-01-09T10:18:23.602Z,38.00
2023-01-09T10:20:58.335Z,39.00
2023-01-09T10:23:58.147Z,39.70
2023-01-09T10:26:32.594Z,40.10
2023-01-09T10:29:16.182Z,36.80
2023-01-09T10:31:56.263Z,39.60
2023-01-09T10:34:39.375Z,41.40
2023-01-09T10:37:14.716Z,39.00
2023-01-09T10:39:49.307Z,38.30
2023-01-09T10:42:23.278Z,35.20
2023-01-09T10:44:59.510Z,38.10
2023-01-09T10:47:30.434Z,38.60
2023-01-09T10:50:15.972Z,34.40
2023-01-09T10:52:46.531Z,35.70
2023-01-09T10:57:51.020Z,30.80
2023-01-09T11:00:27.954Z,39.30
2023-01-09T11:02:56.842Z,36.80
2023-01-09T11:05:28.877Z,38.70
2023-01-09T11:08:04.477Z,36.80
2023-01-09T11:10:47.949Z,43.60
2023-01-09T11:13:22.022Z,43.80
2023-01-09T11:16:04.665Z,40.90
2023-01-09T11:18:35.315Z,39.80
2023-01-09T11:23:54.570Z,47.30
2023-01-09T11:26:26.154Z,45.60
2023-01-09T11:29:10.987Z,46.40
2023-01-09T11:31:41.314Z,51.30
2023-01-09T11:34:17.570Z,53.70
2023-01-09T11:36:47.499Z,49.60
2023-01-09T11:39:24.178Z,52.50
2023-01-09T11:41:55.683Z,43.40
2023-01-09T11:44:25.745Z,44.60
2023-01-09T11:46:54.834Z,38.30
2023-01-09T11:49:25.541Z,48.30
2023-01-09T11:52:15.659Z,44.10
2023-01-09T11:54:49.072Z,43.20
2023-01-09T11:57:18.449Z,40.90
2023-01-09T11:59:47.466Z,43.30
2023-01-09T12:02:38.295Z,42.80
2023-01-09T12:06:05.449Z,37.70
2023-01-09T12:08:47.664Z,44.40
2023-01-09T12:11:28.302Z,45.50
2023-01-09T12:17:15.125Z,44.20
2023-01-09T12:30:42.524Z,37.90
2023-01-09T12:33:28.227Z,33.70
2023-01-09T12:36:11.899Z,38.20
2023-01-09T12:38:54.608Z,41.10
2023-01-09T12:41:57.481Z,46.10
2023-01-09T12:44:53.075Z,42.10
2023-01-09T12:47:46.667Z,39.10
2023-01-09T12:50:44.864Z,63.60
2023-01-09T12:53:28.013Z,38.60
2023-01-09T12:56:23.402Z,33.80
2023-01-09T12:58:59.919Z,38.20
2023-01-09T13:01:40.281Z,49.90
2023-01-09T13:04:18.610Z,35.10
2023-01-09T13:06:57.316Z,35.50
2023-01-09T13:09:34.374Z,33.10
2023-01-09T13:12:13.166Z,37.30
2023-01-09T13:14:53.240Z,35.10
2023-01-09T13:17:31.193Z,38.70
2023-01-09T13:20:03.474Z,37.50
2023-01-09T13:22:35.803Z,31.70
2023-01-09T13:25:33.311Z,36.70
2023-01-09T13:28:13.868Z,39.10
2023-01-09T13:33:47.413Z,39.90
2023-01-09T13:36:27.468Z,32.60
2023-01-09T13:39:03.722Z,42.80
2023-01-09T13:42:04.867Z,35.10
2023-01-09T13:44:37.244Z,38.00
2023-01-09T13:47:21.230Z,37.10
2023-01-09T13:50:28.077Z,34.10
2023-01-09T13:53:37.592Z,29.90
2023-01-09T13:56:10.374Z,32.00
2023-01-09T13:59:05.827Z,29.40
2023-01-09T14:01:47.563Z,35.40
2023-01-09T14:04:47.116Z,30.60
2023-01-09T14:07:23.734Z,38.60
2023-01-09T14:10:01.886Z,33.70
2023-01-09T14:12:42.104Z,31.10
2023-01-09T14:15:29.056Z,32.30
2023-01-09T14:18:04.821Z,30.00
2023-01-09T14:20:41.140Z,36.80
2023-01-09T14:23:49.751Z,33.80
2023-01-09T14:26:22.663Z,31.60
2023-01-09T14:29:15.151Z,31.60
2023-01-09T14:31:48.433Z,34.40
2023-01-09T14:34:39.525Z,32.50
2023-01-09T14:37:15.987Z,31.50
2023-01-09T14:39:50.646Z,28.60
2023-01-09T14:42:29.544Z,28.90
2023-01-09T14:45:07.275Z,28.70
2023-01-09T14:47:44.374Z,28.00
2023-01-09T14:50:26.187Z,26.60
2023-01-09T14:53:05.702Z,27.30
2023-01-09T14:55:50.753Z,26.80
2023-01-09T14:58:25.693Z,22.80
2023-01-09T15:01:06.138Z,27.30
2023-01-09T15:03:45.928Z,26.70
2023-01-09T15:06:21.586Z,118.80
2023-01-09T15:08:58.401Z,90.40
2023-01-09T15:11:33.221Z,78.00
2023-01-09T15:14:10.353Z,22.80
2023-01-09T15:16:45.815Z,86.00
2023-01-09T15:19:20.482Z,20.80
2023-01-09T15:22:07.675Z,16.50
2023-01-09T15:24:40.099Z,12.20
2023-01-09T15:27:19.397Z,13.90
2023-01-09T15:29:52.202Z,41.50
2023-01-09T15:32:29.622Z,17.70
2023-01-09T15:35:02.414Z,30.80
2023-01-09T15:37:39.273Z,22.20
2023-01-09T15:40:26.791Z,37.10
2023-01-09T15:42:59.686Z,29.40
2023-01-09T15:45:35.585Z,35.10
2023-01-09T15:48:25.577Z,33.10
2023-01-09T15:51:02.730Z,25.40
2023-01-09T15:53:36.350Z,67.70
2023-01-09T15:56:20.897Z,43.80
2023-01-09T15:58:54.542Z,20.50
2023-01-09T16:01:32.057Z,17.40
2023-01-09T16:04:11.706Z,17.00
2023-01-09T16:06:49.348Z,25.40
2023-01-09T16:09:26.972Z,13.60
2023-01-09T16:12:02.136Z,18.60
2023-01-09T16:14:38.663Z,30.10
2023-01-09T16:17:18.453Z,13.40
2023-01-09T16:19:55.436Z,16.00
2023-01-09T16:22:30.121Z,14.20
2023-01-09T16:25:04.305Z,22.60
2023-01-09T16:27:36.887Z,11.90
2023-01-09T16:30:26.691Z,13.90
2023-01-09T16:32:59.644Z,19.60
2023-01-09T16:35:31.953Z,14.80
2023-01-09T16:38:04.323Z,17.60
2023-01-09T16:40:37.208Z,23.80
2023-01-09T16:43:15.796Z,15.80
2023-01-09T16:45:48.205Z,74.40
2023-01-09T16:48:24.979Z,26.80
2023-01-09T16:50:57.788Z,48.80
2023-01-09T16:53:32.121Z,46.20
2023-01-09T16:56:04.533Z,39.20
2023-01-09T16:58:38.353Z,54.50
2023-01-09T17:01:13.629Z,156.40
2023-01-09T17:03:46.092Z,95.20
2023-01-09T17:06:27.839Z,60.10
2023-01-09T17:09:01.230Z,59.50
2023-01-09T17:11:33.895Z,71.60
2023-01-09T17:14:07.271Z,71.40
2023-01-09T17:16:43.355Z,69.70
2023-01-09T17:19:20.858Z,80.90
2023-01-09T17:21:53.712Z,48.00
2023-01-09T17:24:43.588Z,41.30
2023-01-09T17:27:33.517Z,55.90
2023-01-09T17:30:18.253Z,51.20
2023-01-09T17:32:52.200Z,40.90
2023-01-09T17:35:25.029Z,36.60
2023-01-09T17:37:57.413Z,33.70
2023-01-09T17:40:30.928Z,28.10
2023-01-09T17:43:03.678Z,33.70
2023-01-09T17:45:36.241Z,30.20
2023-01-09T17:48:10.574Z,51.30
2023-01-09T17:50:43.258Z,36.10
2023-01-09T17:53:15.886Z,26.90
2023-01-09T17:55:48.299Z,19.80
2023-01-09T17:58:29.225Z,28.50
2023-01-09T18:01:02.185Z,22.30
2023-01-09T18:03:35.099Z,19.10
2023-01-09T18:06:09.075Z,23.60
2023-01-09T18:08:41.605Z,22.00
2023-01-09T18:11:17.655Z,21.50
2023-01-09T18:13:53.700Z,19.60
2023-01-09T18:16:29.456Z,19.20
2023-01-09T18:19:02.483Z,25.90
2023-01-09T18:21:35.173Z,23.00
2023-01-09T18:24:08.542Z,19.60
2023-01-09T18:26:40.983Z,22.80
2023-01-09T18:29:14.162Z,30.30
2023-01-09T18:31:46.635Z,21.20
2023-01-09T18:34:20.630Z,23.40
2023-01-09T18:36:53.038Z,25.60
2023-01-09T18:39:26.062Z,35.60
2023-01-09T18:41:58.384Z,24.70
2023-01-09T18:44:30.679Z,24.00
2023-01-09T18:47:02.989Z,37.40
2023-01-09T18:49:36.599Z,39.40
2023-01-09T18:52:09.061Z,36.20
2023-01-09T18:54:42.773Z,39.70
2023-01-09T18:57:15.352Z,38.40
2023-01-09T18:59:47.824Z,39.40
2023-01-09T19:02:23.745Z,44.50
2023-01-09T19:05:00.797Z,85.90
2023-01-09T19:07:33.386Z,37.10
2023-01-09T19:10:06.222Z,25.50
2023-01-09T19:12:38.611Z,26.60
2023-01-09T19:15:13.041Z,32.80
2023-01-09T19:17:46.958Z,30.30
2023-01-09T19:20:20.357Z,27.90
2023-01-09T19:22:52.713Z,31.00
2023-01-09T19:25:26.602Z,33.40
2023-01-09T19:28:00.698Z,32.20
2023-01-09T19:30:37.786Z,33.50
2023-01-09T19:33:13.190Z,35.90
2023-01-09T19:35:49.011Z,29.40
2023-01-09T19:38:23.337Z,32.40
2023-01-09T19:40:55.791Z,28.50
2023-01-09T19:43:28.318Z,27.90
2023-01-09T19:46:01.009Z,24.10
2023-01-09T19:48:36.832Z,26.40
2023-01-09T19:51:10.851Z,23.40
2023-01-09T19:53:43.636Z,25.80
2023-01-09T19:56:18.549Z,23.30
2023-01-09T19:58:53.686Z,26.00
2023-01-09T20:01:28.211Z,25.10
2023-01-09T20:04:04.997Z,22.00
2023-01-09T20:06:44.002Z,23.90
2023-01-09T20:09:18.006Z,21.90
2023-01-09T20:11:50.352Z,23.50
2023-01-09T20:14:22.864Z,25.40
2023-01-09T20:16:59.921Z,25.10
2023-01-09T20:19:33.428Z,23.20
2023-01-09T20:22:06.146Z,26.70
2023-01-09T20:24:39.303Z,29.10
2023-01-09T20:27:11.841Z,46.20
2023-01-09T20:29:44.737Z,30.00
2023-01-09T20:32:26.253Z,26.70
2023-01-09T20:34:58.799Z,24.40
2023-01-09T20:37:31.720Z,31.10
2023-01-09T20:40:05.935Z,32.10
2023-01-09T20:42:40.563Z,30.60
2023-01-09T20:45:14.127Z,31.80
2023-01-09T20:47:50.251Z,31.60
2023-01-09T20:50:23.868Z,35.20
2023-01-09T20:52:56.714Z,39.90
2023-01-09T20:55:29.196Z,39.40
2023-01-09T20:58:01.728Z,46.70
2023-01-09T21:00:34.245Z,48.10
2023-01-09T21:03:06.737Z,53.50
2023-01-09T21:05:43.111Z,56.60
2023-01-09T21:08:15.590Z,52.40
2023-01-09T21:10:48.038Z,55.80
2023-01-09T21:13:20.511Z,49.00
2023-01-09T21:15:53.020Z,38.50
2023-01-09T21:18:25.869Z,34.20
2023-01-09T21:20:58.343Z,39.40
2023-01-09T21:23:30.778Z,34.20
2023-01-09T21:26:11.533Z,37.80
2023-01-09T21:28:49.115Z,35.90
2023-01-09T21:31:25.459Z,34.60
2023-01-09T21:33:58.289Z,34.30
2023-01-09T21:36:30.936Z,34.50
2023-01-09T21:39:05.403Z,35.80
2023-01-09T21:41:57.931Z,33.60
2023-01-09T21:44:47.909Z,33.80
2023-01-09T21:47:20.114Z,43.90
2023-01-09T21:49:52.613Z,41.50
2023-01-09T21:52:25.805Z,36.20
2023-01-09T21:54:58.776Z,41.00
2023-01-09T21:57:31.161Z,45.20
2023-01-09T22:00:03.420Z,58.10
2023-01-09T22:07:45.779Z,48.70
2023-01-09T22:10:18.821Z,53.20
2023-01-09T22:13:11.471Z,48.70
2023-01-09T22:15:44.896Z,49.50
2023-01-09T22:18:17.263Z,48.50
2023-01-09T22:20:49.894Z,45.10
2023-01-09T22:23:22.282Z,37.40
2023-01-09T22:25:55.164Z,39.80
2023-01-09T22:28:30.136Z,47.00
2023-01-09T22:31:02.540Z,42.00
2023-01-09T22:33:35.024Z,49.60
2023-01-09T22:36:12.052Z,44.60
2023-01-09T22:38:44.758Z,48.40
2023-01-09T22:41:17.313Z,59.00
2023-01-09T22:43:50.421Z,58.90
2023-01-09T22:46:22.896Z,57.20
2023-01-09T22:48:55.283Z,50.80
2023-01-09T22:51:27.789Z,53.80
2023-01-09T22:54:00.821Z,48.80
2023-01-09T22:56:33.872Z,46.30
2023-01-09T22:59:06.305Z,40.80
2023-01-09T23:01:40.125Z,38.60
2023-01-09T23:04:16.443Z,39.90
2023-01-09T23:06:51.775Z,37.40
2023-01-09T23:09:25.327Z,38.40
2023-01-09T23:12:03.951Z,35.60
2023-01-09T23:14:40.722Z,34.40
2023-01-09T23:17:13.999Z,36.60
2023-01-09T23:19:46.602Z,33.50
2023-01-09T23:22:19.486Z,35.90
2023-01-09T23:24:52.589Z,42.60
2023-01-09T23:27:25.012Z,41.90
2023-01-09T23:29:59.707Z,52.70
2023-01-09T23:32:32.230Z,72.40
2023-01-09T23:35:08.969Z,64.30
2023-01-09T23:37:41.568Z,72.70
2023-01-09T23:40:16.058Z,66.90
2023-01-09T23:43:05.993Z,65.80
2023-01-09T23:45:40.040Z,63.00
2023-01-09T23:48:14.558Z,66.60
2023-01-09T23:50:49.996Z,51.70
2023-01-09T23:53:25.684Z,46.10
2023-01-09T23:55:58.108Z,47.30
2023-01-09T23:58:30.823Z,43.30
